Airfield :
LOGIN :

Register | Disclaimer

   EN    FR    IT 

 










Legend :    VFR   Marginal VFR   IFR   Intensive IFR   Very Intensive IFR
Visi :
Ceiling :
>= 8 km
>= 3000ft
5 to 8 km
1000 to 3000 ft
1500m to 5 km
500 to 1000 ft
800 to 1500m
200 to 500 ft
< 800m
< 200 ft
Symbols :   Thunderstorms  Fog  Heavy snow  Heavy precipitations  Wind > 20 kt
SIGMETs :     Misc.  Thunderstorms  Icing  Turbulence  Mountain Waves  Volcanic Ashes






- Airport Elevation : 202 ft
- IATA code : LGW


EGKK - London Gatwick

CURRENT METAR :
  • 151720Z VRB04KT 8000 BKN014 21/18 Q1013

EXPIRED METARs :
  • 151650Z 32004KT 250V350 8000 BKN016 20/18 Q1013
  • 151620Z 33005KT 200V360 7000 -RADZ BKN014 20/18 Q1013
  • 151550Z VRB03KT 8000 BKN009 20/18 Q1014
  • 151520Z 04004KT 350V070 9999 BKN012 21/18 Q1014
  • 151450Z 36005KT 320V070 9999 BKN012 21/18 Q1014

TAF TAF EGKK
Valid from the 15 at 18:00 until the 17 at 00:00 UTC


151658Z 1518/1624 34003KT 9999 SCT009 BKN016
TEMPO 1518/1521 8000 BKN009
PROB30
TEMPO 1518/1521 3000 +SHRA
BECMG 1521/1524 8000 BKN008
PROB40
TEMPO 1600/1607 3000 -RADZ BR BKN004
BECMG 1607/1610 FEW015
PROB30
TEMPO 1610/1615 VRB17G27KT 3000 +TSRA
PROB30
TEMPO 1615/1624 3000 +SHRA



MET'MAP, your aeronautical weather chart ! - Copyright ORBIFLY December 2007 - Disclaimer

ORBIFLY MET'MAP TEAM :

Programming & Development : Alexandra Zaïnal
Concept & original design : Baudouin d'Aumeries
Assistance for programming : Marc-Olivier Méhu
Technical & hardware support : Manuel Goepfert

Contact : metmap@orbifly.com




SOURCES & CREDITS :

   NOAA